sensor_id;sensor_type;location;lat;lon;timestamp;pressure;altitude;pressure_sealevel;temperature;humidity
8069;BME280;4077;43.702;24.896;2023-05-27T00:02:00;99447.31;;;16.59;100.00
8069;BME280;4077;43.702;24.896;2023-05-27T00:04:26;99455.88;;;16.67;100.00
8069;BME280;4077;43.702;24.896;2023-05-27T00:06:51;99454.16;;;16.66;100.00
8069;BME280;4077;43.702;24.896;2023-05-27T00:09:17;99448.97;;;16.66;100.00
8069;BME280;4077;43.702;24.896;2023-05-27T00:11:42;99447.28;;;16.63;100.00
8069;BME280;4077;43.702;24.896;2023-05-27T00:14:08;99443.81;;;16.60;100.00
8069;BME280;4077;43.702;24.896;2023-05-27T00:16:33;99435.28;;;16.50;100.00
8069;BME280;4077;43.702;24.896;2023-05-27T00:19:03;99449.09;;;16.57;100.00
8069;BME280;4077;43.702;24.896;2023-05-27T00:21:28;99433.59;;;16.48;100.00
8069;BME280;4077;43.702;24.896;2023-05-27T00:23:55;99455.13;;;16.62;100.00
8069;BME280;4077;43.702;24.896;2023-05-27T00:26:23;99456.69;;;16.75;100.00
8069;BME280;4077;43.702;24.896;2023-05-27T00:28:48;99453.25;;;16.75;100.00
8069;BME280;4077;43.702;24.896;2023-05-27T00:31:14;99461.84;;;16.78;100.00
8069;BME280;4077;43.702;24.896;2023-05-27T00:33:40;99460.16;;;16.74;100.00
8069;BME280;4077;43.702;24.896;2023-05-27T00:36:05;99444.50;;;16.77;100.00
8069;BME280;4077;43.702;24.896;2023-05-27T00:38:31;99458.16;;;16.93;100.00
8069;BME280;4077;43.702;24.896;2023-05-27T00:40:57;99448.50;;;17.00;100.00
8069;BME280;4077;43.702;24.896;2023-05-27T00:43:25;99451.19;;;16.93;100.00
8069;BME280;4077;43.702;24.896;2023-05-27T00:45:50;99454.59;;;16.99;100.00
8069;BME280;4077;43.702;24.896;2023-05-27T00:48:16;99448.44;;;17.04;100.00
8069;BME280;4077;43.702;24.896;2023-05-27T00:50:41;99455.31;;;17.10;100.00
8069;BME280;4077;43.702;24.896;2023-05-27T00:53:11;99451.94;;;17.03;100.00
8069;BME280;4077;43.702;24.896;2023-05-27T00:55:37;99442.41;;;17.01;100.00
8069;BME280;4077;43.702;24.896;2023-05-27T00:58:02;99444.16;;;17.00;100.00
8069;BME280;4077;43.702;24.896;2023-05-27T01:00:30;99453.59;;;17.07;100.00
8069;BME280;4077;43.702;24.896;2023-05-27T01:03:03;99431.06;;;17.02;100.00
8069;BME280;4077;43.702;24.896;2023-05-27T01:05:29;99429.34;;;17.01;100.00
8069;BME280;4077;43.702;24.896;2023-05-27T01:10:31;99436.19;;;17.08;100.00
8069;BME280;4077;43.702;24.896;2023-05-27T01:13:18;99446.63;;;17.08;100.00
8069;BME280;4077;43.702;24.896;2023-05-27T01:15:49;99414.84;;;16.84;100.00
8069;BME280;4077;43.702;24.896;2023-05-27T01:18:17;99447.63;;;17.02;100.00
8069;BME280;4077;43.702;24.896;2023-05-27T01:20:47;99438.03;;;17.03;100.00
8069;BME280;4077;43.702;24.896;2023-05-27T01:23:13;99432.75;;;17.06;100.00
8069;BME280;4077;43.702;24.896;2023-05-27T01:25:39;99426.78;;;16.99;100.00
8069;BME280;4077;43.702;24.896;2023-05-27T01:28:04;99438.03;;;17.03;100.00
8069;BME280;4077;43.702;24.896;2023-05-27T01:30:30;99445.06;;;16.98;100.00
8069;BME280;4077;43.702;24.896;2023-05-27T01:33:18;99439.06;;;16.92;100.00
8069;BME280;4077;43.702;24.896;2023-05-27T01:35:50;99429.66;;;16.82;100.00
8069;BME280;4077;43.702;24.896;2023-05-27T01:38:18;99436.47;;;16.91;100.00
8069;BME280;4077;43.702;24.896;2023-05-27T01:40:44;99431.38;;;16.83;100.00
8069;BME280;4077;43.702;24.896;2023-05-27T01:43:11;99445.25;;;16.85;100.00
8069;BME280;4077;43.702;24.896;2023-05-27T01:45:37;99436.69;;;16.77;100.00
8069;BME280;4077;43.702;24.896;2023-05-27T01:48:03;99431.56;;;16.71;100.00
8069;BME280;4077;43.702;24.896;2023-05-27T01:50:29;99431.59;;;16.65;100.00
8069;BME280;4077;43.702;24.896;2023-05-27T01:52:56;99435.22;;;16.55;100.00
8069;BME280;4077;43.702;24.896;2023-05-27T01:55:22;99427.47;;;16.50;100.00
8069;BME280;4077;43.702;24.896;2023-05-27T01:57:47;99428.38;;;16.48;100.00
8069;BME280;4077;43.702;24.896;2023-05-27T02:00:13;99421.44;;;16.48;100.00
8069;BME280;4077;43.702;24.896;2023-05-27T02:02:41;99419.78;;;16.39;100.00
8069;BME280;4077;43.702;24.896;2023-05-27T02:05:07;99427.53;;;16.44;100.00
8069;BME280;4077;43.702;24.896;2023-05-27T02:07:32;99429.31;;;16.42;100.00
8069;BME280;4077;43.702;24.896;2023-05-27T02:09:58;99427.59;;;16.39;100.00
8069;BME280;4077;43.702;24.896;2023-05-27T02:12:23;99431.13;;;16.35;100.00
8069;BME280;4077;43.702;24.896;2023-05-27T02:14:49;99427.53;;;16.44;100.00
8069;BME280;4077;43.702;24.896;2023-05-27T02:17:16;99428.47;;;16.41;100.00
8069;BME280;4077;43.702;24.896;2023-05-27T02:19:42;99438.81;;;16.48;100.00
8069;BME280;4077;43.702;24.896;2023-05-27T02:22:07;99443.13;;;16.49;100.00
8069;BME280;4077;43.702;24.896;2023-05-27T02:24:33;99433.69;;;16.41;100.00
8069;BME280;4077;43.702;24.896;2023-05-27T02:26:59;99449.19;;;16.51;100.00
8069;BME280;4077;43.702;24.896;2023-05-27T02:29:25;99447.41;;;16.53;100.00
8069;BME280;4077;43.702;24.896;2023-05-27T02:31:50;99437.94;;;16.46;100.00
8069;BME280;4077;43.702;24.896;2023-05-27T02:34:16;99443.22;;;16.42;100.00
8069;BME280;4077;43.702;24.896;2023-05-27T02:36:41;99384.56;;;16.11;100.00
8069;BME280;4077;43.702;24.896;2023-05-27T02:39:17;99442.28;;;16.45;100.00
8069;BME280;4077;43.702;24.896;2023-05-27T02:41:43;99434.53;;;16.42;100.00
8069;BME280;4077;43.702;24.896;2023-05-27T02:44:08;99446.69;;;16.41;100.00
8069;BME280;4077;43.702;24.896;2023-05-27T02:46:33;99454.50;;;16.40;100.00
8069;BME280;4077;43.702;24.896;2023-05-27T02:48:59;99441.59;;;16.32;100.00
8069;BME280;4077;43.702;24.896;2023-05-27T02:51:25;99447.66;;;16.34;100.00
8069;BME280;4077;43.702;24.896;2023-05-27T02:53:50;99449.41;;;16.32;100.00
8069;BME280;4077;43.702;24.896;2023-05-27T02:56:16;99445.97;;;16.30;100.00
8069;BME280;4077;43.702;24.896;2023-05-27T02:58:42;99450.25;;;16.34;100.00
8069;BME280;4077;43.702;24.896;2023-05-27T03:01:07;99452.81;;;16.37;100.00
8069;BME280;4077;43.702;24.896;2023-05-27T03:03:33;99451.03;;;16.39;100.00
8069;BME280;4077;43.702;24.896;2023-05-27T03:05:58;99452.78;;;16.40;100.00
8069;BME280;4077;43.702;24.896;2023-05-27T03:08:24;99452.81;;;16.37;100.00
8069;BME280;4077;43.702;24.896;2023-05-27T03:10:49;99463.22;;;16.40;100.00
8069;BME280;4077;43.702;24.896;2023-05-27T03:13:15;99454.66;;;16.29;100.00
8069;BME280;4077;43.702;24.896;2023-05-27T03:15:41;99460.00;;;16.19;100.00
8069;BME280;4077;43.702;24.896;2023-05-27T03:18:07;99460.88;;;16.18;100.00
8069;BME280;4077;43.702;24.896;2023-05-27T03:20:34;99452.28;;;16.09;100.00
8069;BME280;4077;43.702;24.896;2023-05-27T03:23:02;99462.69;;;16.11;100.00
8069;BME280;4077;43.702;24.896;2023-05-27T03:25:28;99460.88;;;16.18;100.00
8069;BME280;4077;43.702;24.896;2023-05-27T03:27:54;99443.56;;;16.13;100.00
8069;BME280;4077;43.702;24.896;2023-05-27T03:30:19;99461.66;;;16.27;100.00
8069;BME280;4077;43.702;24.896;2023-05-27T03:32:45;99464.19;;;16.30;100.00
8069;BME280;4077;43.702;24.896;2023-05-27T03:35:11;99463.28;;;16.34;100.00
8069;BME280;4077;43.702;24.896;2023-05-27T03:37:36;99473.63;;;16.39;100.00
8069;BME280;4077;43.702;24.896;2023-05-27T03:40:02;99478.66;;;16.53;100.00
8069;BME280;4077;43.702;24.896;2023-05-27T03:42:28;99476.94;;;16.55;100.00
8069;BME280;4077;43.702;24.896;2023-05-27T03:44:54;99475.03;;;16.66;100.00
8069;BME280;4077;43.702;24.896;2023-05-27T03:47:19;99470.63;;;16.73;100.00
8069;BME280;4077;43.702;24.896;2023-05-27T03:49:47;99481.81;;;16.82;100.00
8069;BME280;4077;43.702;24.896;2023-05-27T03:52:13;99487.03;;;16.79;100.00
8069;BME280;4077;43.702;24.896;2023-05-27T03:54:39;99463.72;;;16.68;100.00
8069;BME280;4077;43.702;24.896;2023-05-27T03:57:05;99481.03;;;16.73;100.00
8069;BME280;4077;43.702;24.896;2023-05-27T03:59:32;99480.22;;;16.69;100.00
8069;BME280;4077;43.702;24.896;2023-05-27T04:01:57;99479.41;;;16.64;100.00
8069;BME280;4077;43.702;24.896;2023-05-27T04:04:23;99485.44;;;16.69;100.00
8069;BME280;4077;43.702;24.896;2023-05-27T04:06:48;99486.31;;;16.70;100.00
8069;BME280;4077;43.702;24.896;2023-05-27T04:09:14;99488.91;;;16.68;100.00
8069;BME280;4077;43.702;24.896;2023-05-27T04:11:39;99488.84;;;16.74;100.00
8069;BME280;4077;43.702;24.896;2023-05-27T04:14:05;99493.16;;;16.77;100.00
8069;BME280;4077;43.702;24.896;2023-05-27T04:16:32;99491.38;;;16.82;100.00
8069;BME280;4077;43.702;24.896;2023-05-27T04:22:05;99501.53;;;16.99;100.00
8069;BME280;4077;43.702;24.896;2023-05-27T04:24:30;99500.41;;;17.18;100.00
8069;BME280;4077;43.702;24.896;2023-05-27T04:26:56;99502.56;;;17.45;100.00
8069;BME280;4077;43.702;24.896;2023-05-27T04:29:22;99506.53;;;17.71;100.00
8069;BME280;4077;43.702;24.896;2023-05-27T04:31:49;99494.50;;;17.59;100.00
8069;BME280;4077;43.702;24.896;2023-05-27T04:34:16;99506.53;;;17.71;100.00
8069;BME280;4077;43.702;24.896;2023-05-27T04:36:41;99494.31;;;17.70;100.00
8069;BME280;4077;43.702;24.896;2023-05-27T04:39:07;99491.44;;;17.87;100.00
8069;BME280;4077;43.702;24.896;2023-05-27T04:41:33;99495.63;;;17.95;100.00
8069;BME280;4077;43.702;24.896;2023-05-27T04:43:59;99500.94;;;17.92;100.00
8069;BME280;4077;43.702;24.896;2023-05-27T04:46:26;99494.84;;;17.90;100.00
8069;BME280;4077;43.702;24.896;2023-05-27T04:48:55;99494.59;;;18.06;100.00
8069;BME280;4077;43.702;24.896;2023-05-27T04:51:21;99497.94;;;18.11;100.00
8069;BME280;4077;43.702;24.896;2023-05-27T04:53:47;99497.91;;;18.14;100.00
8069;BME280;4077;43.702;24.896;2023-05-27T04:56:14;99504.94;;;18.10;100.00
8069;BME280;4077;43.702;24.896;2023-05-27T04:58:43;99509.25;;;18.13;100.00
8069;BME280;4077;43.702;24.896;2023-05-27T05:01:11;99500.22;;;18.29;100.00
8069;BME280;4077;43.702;24.896;2023-05-27T05:03:44;99509.47;;;18.45;100.00
8069;BME280;4077;43.702;24.896;2023-05-27T05:06:19;99496.66;;;18.33;100.00
8069;BME280;4077;43.702;24.896;2023-05-27T05:08:44;99509.06;;;18.22;100.00
8069;BME280;4077;43.702;24.896;2023-05-27T05:11:10;99507.22;;;18.27;100.00
8069;BME280;4077;43.702;24.896;2023-05-27T05:13:35;99510.56;;;18.35;100.00
8069;BME280;4077;43.702;24.896;2023-05-27T05:16:01;99515.34;;;18.56;100.00
8069;BME280;4077;43.702;24.896;2023-05-27T05:18:26;99506.53;;;18.62;100.00
8069;BME280;4077;43.702;24.896;2023-05-27T05:20:51;99505.09;;;18.47;100.00
8069;BME280;4077;43.702;24.896;2023-05-27T05:23:17;99503.31;;;18.48;100.00
8069;BME280;4077;43.702;24.896;2023-05-27T05:25:43;99511.91;;;18.54;100.00
8069;BME280;4077;43.702;24.896;2023-05-27T05:28:09;99512.22;;;18.39;100.00
8069;BME280;4077;43.702;24.896;2023-05-27T05:30:34;99505.31;;;18.35;100.00
8069;BME280;4077;43.702;24.896;2023-05-27T05:33:00;99514.22;;;18.25;100.00
8069;BME280;4077;43.702;24.896;2023-05-27T05:35:25;99509.97;;;18.21;100.00
8069;BME280;4077;43.702;24.896;2023-05-27T05:37:51;99516.53;;;18.42;100.00
8069;BME280;4077;43.702;24.896;2023-05-27T05:40:16;99513.81;;;18.46;100.00
8069;BME280;4077;43.702;24.896;2023-05-27T05:42:42;99517.38;;;18.42;100.00
8069;BME280;4077;43.702;24.896;2023-05-27T05:45:08;99519.22;;;18.37;100.00
8069;BME280;4077;43.702;24.896;2023-05-27T05:47:33;99523.19;;;18.56;100.00
8069;BME280;4077;43.702;24.896;2023-05-27T05:49:59;99527.94;;;18.36;100.00
8069;BME280;4077;43.702;24.896;2023-05-27T05:52:25;99526.13;;;18.41;100.00
8069;BME280;4077;43.702;24.896;2023-05-27T05:54:50;99541.69;;;18.47;100.00
8069;BME280;4077;43.702;24.896;2023-05-27T05:57:16;99532.91;;;18.50;100.00
8069;BME280;4077;43.702;24.896;2023-05-27T05:59:41;99530.28;;;18.50;100.00
8069;BME280;4077;43.702;24.896;2023-05-27T06:02:07;99535.47;;;18.51;100.00
8069;BME280;4077;43.702;24.896;2023-05-27T06:04:32;99525.88;;;18.52;100.00
8069;BME280;4077;43.702;24.896;2023-05-27T06:06:58;99533.31;;;18.75;100.00
8069;BME280;4077;43.702;24.896;2023-05-27T06:09:23;99541.28;;;18.66;100.00
8069;BME280;4077;43.702;24.896;2023-05-27T06:11:50;99524.19;;;18.49;100.00
8069;BME280;4077;43.702;24.896;2023-05-27T06:14:16;99541.41;;;18.59;100.00
8069;BME280;4077;43.702;24.896;2023-05-27T06:16:42;99534.53;;;18.55;100.00
8069;BME280;4077;43.702;24.896;2023-05-27T06:19:08;99540.47;;;18.64;100.00
8069;BME280;4077;43.702;24.896;2023-05-27T06:21:34;99545.69;;;18.67;100.00
8069;BME280;4077;43.702;24.896;2023-05-27T06:23:59;99541.19;;;18.72;100.00
8069;BME280;4077;43.702;24.896;2023-05-27T06:26:25;99551.53;;;18.78;100.00
8069;BME280;4077;43.702;24.896;2023-05-27T06:28:52;99562.41;;;18.56;100.00
8069;BME280;4077;43.702;24.896;2023-05-27T06:31:18;99560.56;;;18.62;100.00
8069;BME280;4077;43.702;24.896;2023-05-27T06:33:44;99564.66;;;18.76;100.00
8069;BME280;4077;43.702;24.896;2023-05-27T06:36:09;99567.75;;;18.94;100.00
8069;BME280;4077;43.702;24.896;2023-05-27T06:38:36;99570.22;;;19.01;100.00
8069;BME280;4077;43.702;24.896;2023-05-27T06:41:02;99564.19;;;18.98;100.00
8069;BME280;4077;43.702;24.896;2023-05-27T06:43:27;99564.66;;;18.76;100.00
8069;BME280;4077;43.702;24.896;2023-05-27T06:45:53;99567.03;;;18.87;100.00
8069;BME280;4077;43.702;24.896;2023-05-27T06:48:18;99556.59;;;18.85;100.00
8069;BME280;4077;43.702;24.896;2023-05-27T06:50:44;99561.34;;;18.68;100.00
8069;BME280;4077;43.702;24.896;2023-05-27T06:53:10;99546.72;;;18.56;100.00
8069;BME280;4077;43.702;24.896;2023-05-27T06:55:36;99563.84;;;18.73;100.00
8069;BME280;4077;43.702;24.896;2023-05-27T06:58:01;99566.25;;;18.83;100.00
8069;BME280;4077;43.702;24.896;2023-05-27T07:00:27;99562.69;;;18.88;100.00
8069;BME280;4077;43.702;24.896;2023-05-27T07:02:52;99572.63;;;19.10;100.00
8069;BME280;4077;43.702;24.896;2023-05-27T07:05:17;99575.00;;;19.23;100.00
8069;BME280;4077;43.702;24.896;2023-05-27T07:07:43;99574.84;;;19.29;100.00
8069;BME280;4077;43.702;24.896;2023-05-27T07:10:09;99577.31;;;19.36;100.00
8069;BME280;4077;43.702;24.896;2023-05-27T07:12:34;99586.69;;;19.45;100.00
8069;BME280;4077;43.702;24.896;2023-05-27T07:15:00;99589.22;;;19.50;100.00
8069;BME280;4077;43.702;24.896;2023-05-27T07:17:26;99564.97;;;19.40;100.00
8069;BME280;4077;43.702;24.896;2023-05-27T07:19:51;99591.59;;;19.60;100.00
8069;BME280;4077;43.702;24.896;2023-05-27T07:22:17;99588.19;;;19.55;100.00
8069;BME280;4077;43.702;24.896;2023-05-27T07:24:43;99582.97;;;19.92;100.00
8069;BME280;4077;43.702;24.896;2023-05-27T07:27:09;99584.53;;;19.62;100.00
8069;BME280;4077;43.702;24.896;2023-05-27T07:29:34;99576.31;;;19.40;100.00
8069;BME280;4077;43.702;24.896;2023-05-27T07:32:00;99572.97;;;19.34;100.00
8069;BME280;4077;43.702;24.896;2023-05-27T07:34:25;99569.53;;;19.32;100.00
8069;BME280;4077;43.702;24.896;2023-05-27T07:36:51;99577.72;;;19.55;100.00
8069;BME280;4077;43.702;24.896;2023-05-27T07:39:16;99573.72;;;19.78;100.00
8069;BME280;4077;43.702;24.896;2023-05-27T07:41:42;99590.91;;;19.88;100.00
8069;BME280;4077;43.702;24.896;2023-05-27T07:44:07;99572.06;;;19.74;100.00
8069;BME280;4077;43.702;24.896;2023-05-27T07:46:33;99581.78;;;19.70;100.00
8069;BME280;4077;43.702;24.896;2023-05-27T07:48:59;99583.69;;;19.63;100.00
8069;BME280;4077;43.702;24.896;2023-05-27T07:51:25;99552.84;;;19.37;100.00
8069;BME280;4077;43.702;24.896;2023-05-27T07:53:50;99580.91;;;19.31;100.00
8069;BME280;4077;43.702;24.896;2023-05-27T07:56:16;99577.53;;;19.26;100.00
8069;BME280;4077;43.702;24.896;2023-05-27T07:58:41;99582.75;;;19.26;100.00
8069;BME280;4077;43.702;24.896;2023-05-27T08:01:07;99583.44;;;19.35;100.00
8069;BME280;4077;43.702;24.896;2023-05-27T08:03:32;99584.16;;;19.40;100.00
8069;BME280;4077;43.702;24.896;2023-05-27T08:05:58;99586.25;;;19.26;100.00
8069;BME280;4077;43.702;24.896;2023-05-27T08:08:23;99582.81;;;19.24;100.00
8069;BME280;4077;43.702;24.896;2023-05-27T08:10:49;99583.66;;;19.25;100.00
8069;BME280;4077;43.702;24.896;2023-05-27T08:13:14;99586.06;;;19.34;100.00
8069;BME280;4077;43.702;24.896;2023-05-27T08:15:40;99599.38;;;19.25;100.00
8069;BME280;4077;43.702;24.896;2023-05-27T08:18:05;99605.00;;;19.45;100.00
8069;BME280;4077;43.702;24.896;2023-05-27T08:20:31;99597.94;;;19.49;100.00
8069;BME280;4077;43.702;24.896;2023-05-27T08:22:56;99597.44;;;19.33;100.00
8069;BME280;4077;43.702;24.896;2023-05-27T08:25:22;99599.31;;;19.26;100.00
8069;BME280;4077;43.702;24.896;2023-05-27T08:27:52;99605.91;;;19.44;100.00
8069;BME280;4077;43.702;24.896;2023-05-27T08:30:18;99592.28;;;19.30;100.00
8069;BME280;4077;43.702;24.896;2023-05-27T08:32:44;99608.03;;;19.27;100.00
8069;BME280;4077;43.702;24.896;2023-05-27T08:35:10;99602.06;;;19.22;100.00
8069;BME280;4077;43.702;24.896;2023-05-27T08:37:37;99597.91;;;19.11;100.00
8069;BME280;4077;43.702;24.896;2023-05-27T08:40:03;99596.78;;;19.23;100.00
8069;BME280;4077;43.702;24.896;2023-05-27T08:42:33;99606.88;;;19.79;100.00
8069;BME280;4077;43.702;24.896;2023-05-27T08:44:59;99587.03;;;19.68;100.00
8069;BME280;4077;43.702;24.896;2023-05-27T08:47:28;99596.75;;;19.99;100.00
8069;BME280;4077;43.702;24.896;2023-05-27T08:49:53;99598.91;;;20.17;100.00
8069;BME280;4077;43.702;24.896;2023-05-27T08:52:19;99591.81;;;20.21;100.00
8069;BME280;4077;43.702;24.896;2023-05-27T08:54:48;99595.34;;;20.20;100.00
8069;BME280;4077;43.702;24.896;2023-05-27T08:57:16;99599.09;;;20.10;100.00
8069;BME280;4077;43.702;24.896;2023-05-27T08:59:44;99587.53;;;20.18;100.00
8069;BME280;4077;43.702;24.896;2023-05-27T09:02:14;99585.78;;;20.17;100.00
8069;BME280;4077;43.702;24.896;2023-05-27T09:04:40;99592.56;;;19.92;100.00
8069;BME280;4077;43.702;24.896;2023-05-27T09:07:06;99584.34;;;19.72;100.00
8069;BME280;4077;43.702;24.896;2023-05-27T09:09:32;99571.59;;;19.55;100.00
8069;BME280;4077;43.702;24.896;2023-05-27T09:12:03;99582.63;;;19.71;100.00
8069;BME280;4077;43.702;24.896;2023-05-27T09:14:29;99569.25;;;19.81;100.00
8069;BME280;4077;43.702;24.896;2023-05-27T09:16:55;99581.03;;;19.99;100.00
8069;BME280;4077;43.702;24.896;2023-05-27T09:19:21;99583.56;;;20.02;100.00
8069;BME280;4077;43.702;24.896;2023-05-27T09:21:53;99571.22;;;20.07;100.00
8069;BME280;4077;43.702;24.896;2023-05-27T09:24:19;99572.06;;;20.08;100.00
8069;BME280;4077;43.702;24.896;2023-05-27T09:26:45;99572.69;;;20.17;100.00
8069;BME280;4077;43.702;24.896;2023-05-27T09:29:10;99567.44;;;20.17;100.00
8069;BME280;4077;43.702;24.896;2023-05-27T09:31:40;99571.44;;;20.32;100.00
8069;BME280;4077;43.702;24.896;2023-05-27T09:34:18;99563.78;;;20.25;100.00
8069;BME280;4077;43.702;24.896;2023-05-27T09:36:45;99559.22;;;20.31;100.00
8069;BME280;4077;43.702;24.896;2023-05-27T09:39:13;99567.75;;;20.38;100.00
8069;BME280;4077;43.702;24.896;2023-05-27T09:41:39;99560.34;;;20.55;100.00
8069;BME280;4077;43.702;24.896;2023-05-27T09:44:05;99562.31;;;20.47;100.00
8069;BME280;4077;43.702;24.896;2023-05-27T09:46:32;99556.25;;;20.43;100.00
8069;BME280;4077;43.702;24.896;2023-05-27T09:48:59;99546.41;;;20.53;100.00
8069;BME280;4077;43.702;24.896;2023-05-27T09:51:26;99555.38;;;20.75;100.00
8069;BME280;4077;43.702;24.896;2023-05-27T09:53:53;99559.94;;;21.00;100.00
8069;BME280;4077;43.702;24.896;2023-05-27T09:56:24;99557.03;;;20.80;100.00
8069;BME280;4077;43.702;24.896;2023-05-27T09:58:53;99564.56;;;20.90;100.00
8069;BME280;4077;43.702;24.896;2023-05-27T10:01:19;99568.44;;;20.77;100.00
8069;BME280;4077;43.702;24.896;2023-05-27T10:03:45;99552.66;;;20.49;100.00
8069;BME280;4077;43.702;24.896;2023-05-27T10:06:15;99550.88;;;20.81;100.00
8069;BME280;4077;43.702;24.896;2023-05-27T10:08:42;99534.78;;;20.91;100.00
8069;BME280;4077;43.702;24.896;2023-05-27T10:11:10;99550.56;;;21.19;100.00
8069;BME280;4077;43.702;24.896;2023-05-27T10:13:36;99553.97;;;21.23;100.00
8069;BME280;4077;43.702;24.896;2023-05-27T10:16:02;99542.88;;;21.13;100.00
8069;BME280;4077;43.702;24.896;2023-05-27T10:18:29;99523.72;;;20.82;100.00
8069;BME280;4077;43.702;24.896;2023-05-27T10:20:56;99535.19;;;20.77;100.00
8069;BME280;4077;43.702;24.896;2023-05-27T10:23:30;99533.41;;;20.80;100.00
8069;BME280;4077;43.702;24.896;2023-05-27T10:26:05;99545.22;;;21.22;100.00
8069;BME280;4077;43.702;24.896;2023-05-27T10:28:35;99543.06;;;21.37;100.00
8069;BME280;4077;43.702;24.896;2023-05-27T10:31:14;99534.16;;;21.69;100.00
8069;BME280;4077;43.702;24.896;2023-05-27T10:33:45;99531.00;;;21.84;100.00
8069;BME280;4077;43.702;24.896;2023-05-27T10:36:13;99534.88;;;21.72;100.00
8069;BME280;4077;43.702;24.896;2023-05-27T10:38:41;99529.84;;;21.66;100.00
8069;BME280;4077;43.702;24.896;2023-05-27T10:41:07;99524.06;;;21.81;100.00
8069;BME280;4077;43.702;24.896;2023-05-27T10:43:34;99523.69;;;21.92;100.00
8069;BME280;4077;43.702;24.896;2023-05-27T10:46:12;99525.56;;;21.89;100.00
8069;BME280;4077;43.702;24.896;2023-05-27T10:48:38;99513.97;;;21.94;100.00
8069;BME280;4077;43.702;24.896;2023-05-27T10:51:07;99519.88;;;22.01;100.00
8069;BME280;4077;43.702;24.896;2023-05-27T10:53:35;99511.22;;;21.99;100.00
8069;BME280;4077;43.702;24.896;2023-05-27T10:56:01;99517.22;;;22.27;100.00
8069;BME280;4077;43.702;24.896;2023-05-27T10:58:27;99517.94;;;22.79;100.00
8069;BME280;4077;43.702;24.896;2023-05-27T11:00:54;99503.94;;;22.79;100.00
8069;BME280;4077;43.702;24.896;2023-05-27T11:03:26;99505.63;;;23.03;100.00
8069;BME280;4077;43.702;24.896;2023-05-27T11:06:02;99503.13;;;23.22;100.00
8069;BME280;4077;43.702;24.896;2023-05-27T11:08:29;99497.41;;;23.55;100.00
8069;BME280;4077;43.702;24.896;2023-05-27T11:11:02;99498.34;;;23.76;100.00
8069;BME280;4077;43.702;24.896;2023-05-27T11:15:59;99484.34;;;23.73;97.86
8069;BME280;4077;43.702;24.896;2023-05-27T11:18:25;99478.81;;;23.80;96.66
8069;BME280;4077;43.702;24.896;2023-05-27T11:20:58;99480.59;;;23.79;93.38
8069;BME280;4077;43.702;24.896;2023-05-27T11:23:42;99470.44;;;23.90;92.88
8069;BME280;4077;43.702;24.896;2023-05-27T11:26:24;99485.72;;;24.23;93.66
8069;BME280;4077;43.702;24.896;2023-05-27T11:28:58;99486.50;;;24.25;91.11
8069;BME280;4077;43.702;24.896;2023-05-27T11:31:30;99466.59;;;24.38;90.76
8069;BME280;4077;43.702;24.896;2023-05-27T11:34:01;99475.50;;;24.54;87.24
8069;BME280;4077;43.702;24.896;2023-05-27T11:36:28;99467.84;;;24.48;88.19
8069;BME280;4077;43.702;24.896;2023-05-27T11:38:58;99466.88;;;24.51;92.43
8069;BME280;4077;43.702;24.896;2023-05-27T11:41:28;99474.38;;;24.60;88.67
8069;BME280;4077;43.702;24.896;2023-05-27T11:44:08;99470.72;;;24.63;91.11
8069;BME280;4077;43.702;24.896;2023-05-27T11:46:38;99465.03;;;24.72;90.65
8069;BME280;4077;43.702;24.896;2023-05-27T11:49:05;99452.47;;;24.19;88.23
8069;BME280;4077;43.702;24.896;2023-05-27T11:51:34;99450.09;;;24.13;93.82
8069;BME280;4077;43.702;24.896;2023-05-27T11:54:00;99449.41;;;24.09;91.68
8069;BME280;4077;43.702;24.896;2023-05-27T11:56:29;99450.69;;;24.19;86.57
8069;BME280;4077;43.702;24.896;2023-05-27T11:58:56;99450.53;;;24.22;88.09
8069;BME280;4077;43.702;24.896;2023-05-27T12:01:22;99448.97;;;24.18;85.39
8069;BME280;4077;43.702;24.896;2023-05-27T12:03:47;99436.84;;;24.14;84.77
8069;BME280;4077;43.702;24.896;2023-05-27T12:06:13;99425.03;;;24.23;84.30
8069;BME280;4077;43.702;24.896;2023-05-27T12:08:41;99434.16;;;24.16;81.96
8069;BME280;4077;43.702;24.896;2023-05-27T12:11:06;99437.19;;;24.07;83.53
8069;BME280;4077;43.702;24.896;2023-05-27T12:13:32;99432.84;;;24.06;78.64
8069;BME280;4077;43.702;24.896;2023-05-27T12:15:58;99428.84;;;23.97;78.11
8069;BME280;4077;43.702;24.896;2023-05-27T12:18:25;99420.09;;;23.76;78.54
8069;BME280;4077;43.702;24.896;2023-05-27T12:20:51;99424.84;;;23.88;76.79
8069;BME280;4077;43.702;24.896;2023-05-27T12:23:17;99421.66;;;23.80;72.52
8069;BME280;4077;43.702;24.896;2023-05-27T12:25:42;99411.78;;;23.65;71.04
8069;BME280;4077;43.702;24.896;2023-05-27T12:28:09;99407.75;;;23.56;73.64
8069;BME280;4077;43.702;24.896;2023-05-27T12:30:36;99415.50;;;23.61;74.79
8069;BME280;4077;43.702;24.896;2023-05-27T12:33:03;99401.41;;;23.62;71.48
8069;BME280;4077;43.702;24.896;2023-05-27T12:35:29;99402.84;;;23.69;71.71
8069;BME280;4077;43.702;24.896;2023-05-27T12:37:56;99394.84;;;23.50;74.45
8069;BME280;4077;43.702;24.896;2023-05-27T12:40:22;99399.06;;;23.34;74.30
8069;BME280;4077;43.702;24.896;2023-05-27T12:42:48;99386.00;;;23.31;75.44
8069;BME280;4077;43.702;24.896;2023-05-27T12:45:13;99392.72;;;23.38;77.04
8069;BME280;4077;43.702;24.896;2023-05-27T12:47:39;99393.97;;;23.50;82.12
8069;BME280;4077;43.702;24.896;2023-05-27T12:50:05;99392.56;;;23.63;79.66
8069;BME280;4077;43.702;24.896;2023-05-27T12:52:32;99385.06;;;23.52;79.60
8069;BME280;4077;43.702;24.896;2023-05-27T12:54:57;99386.19;;;23.46;77.63
8069;BME280;4077;43.702;24.896;2023-05-27T12:57:23;99391.53;;;23.45;79.33
8069;BME280;4077;43.702;24.896;2023-05-27T12:59:49;99385.06;;;23.32;79.06
8069;BME280;4077;43.702;24.896;2023-05-27T13:02:14;99387.78;;;23.30;80.77
8069;BME280;4077;43.702;24.896;2023-05-27T13:04:40;99386.78;;;23.33;82.62
8069;BME280;4077;43.702;24.896;2023-05-27T13:07:09;99389.13;;;23.40;84.66
8069;BME280;4077;43.702;24.896;2023-05-27T13:09:37;99389.38;;;23.55;84.97